| time (UTC) | temp F | wind direction | speed knots | gust knots | rain 1hr in | rain 24hr in | rain mn in | humidity % | barometer mb |
| 20260505093050 | 63 | 196 | 1.7 | 7.8 | 0.00 | 0.00 | 0.00 | 70 | 1006.7 |
| 20260505091552 | 63 | 205 | 2.6 | 8.7 | 0.00 | 0.00 | 0.00 | 69 | 1006.6 |
| 20260505090058 | 64 | 207 | 5.2 | 11.3 | 0.00 | 0.00 | 0.00 | 69 | 1006.6 |
| 20260505084555 | 64 | 194 | 4.3 | 10.4 | 0.00 | 0.00 | 0.00 | 68 | 1006.9 |
| 20260505083102 | 64 | 159 | 3.5 | 8.7 | 0.00 | 0.00 | 0.00 | 68 | 1007.0 |
| 20260505081557 | 64 | 163 | 3.5 | 9.6 | 0.00 | 0.00 | 0.00 | 68 | 1007.2 |
| 20260505080054 | 64 | 166 | 3.5 | 7.8 | 0.00 | 0.00 | 0.00 | 68 | 1006.9 |
| 20260505074554 | 64 | 167 | 0.9 | 7.0 | 0.00 | 0.00 | 0.00 | 68 | 1007.1 |
| 20260505073056 | 64 | 205 | 1.7 | 9.6 | 0.00 | 0.00 | 0.00 | 67 | 1007.2 |
| 20260505071554 | 65 | 149 | 3.5 | 8.7 | 0.00 | 0.00 | 0.00 | 66 | 1006.8 |
| 20260505070055 | 65 | 136 | 2.6 | 8.7 | 0.00 | 0.00 | 0.00 | 65 | 1006.9 |
| 20260505064601 | 66 | 193 | 3.5 | 9.6 | 0.00 | 0.00 | 0.00 | 64 | 1007.0 |
| 20260505063055 | 66 | 205 | 4.3 | 10.4 | 0.00 | 0.00 | 0.00 | 64 | 1007.2 |
| 20260505061604 | 66 | 192 | 5.2 | 13.0 | 0.00 | 0.00 | 0.00 | 64 | 1006.8 |
| 20260505060058 | 66 | 190 | 6.1 | 11.3 | 0.00 | 0.00 | 0.00 | 63 | 1006.9 |
| 20260505054601 | 67 | 188 | 5.2 | 10.4 | 0.00 | 0.00 | 0.00 | 63 | 1006.9 |
| 20260505053108 | 67 | 196 | 4.3 | 10.4 | 0.00 | 0.00 | 0.00 | 61 | 1006.8 |
| 20260505051552 | 68 | 196 | 7.0 | 16.5 | 0.00 | 0.00 | 0.00 | 61 | 1006.7 |
| 20260505041612 | 69 | 214 | 5.2 | 13.9 | 0.00 | 0.00 | 0.00 | 59 | 1007.0 |
| 20260505040057 | 69 | 178 | 5.2 | 13.0 | 0.00 | 0.00 | 0.00 | 58 | 1006.9 |
| 20260505034601 | 69 | 171 | 7.0 | 15.6 | 0.00 | 0.00 | 0.00 | 58 | 1006.9 |
| 20260505033056 | 69 | 205 | 5.2 | 9.6 | 0.00 | 0.00 | 0.00 | 58 | 1006.8 |
| 20260505031603 | 70 | 205 | 2.6 | 11.3 | 0.00 | 0.00 | 0.00 | 57 | 1006.7 |
| 20260505030057 | 70 | 159 | 3.5 | 14.8 | 0.00 | 0.00 | 0.00 | 57 | 1006.4 |
| 20260505024558 | 70 | 194 | 6.1 | 15.6 | 0.00 | 0.00 | 0.00 | 56 | 1006.3 |
| 20260505023103 | 71 | 185 | 6.1 | 13.9 | 0.00 | 0.00 | 0.00 | 56 | 1006.3 |
| 20260505021556 | 71 | 163 | 3.5 | 13.9 | 0.00 | 0.00 | 0.00 | 55 | 1006.1 |
| 20260505020059 | 71 | 187 | 4.3 | 11.3 | 0.00 | 0.00 | 0.00 | 54 | 1006.0 |
| 20260505014553 | 72 | 161 | 4.3 | 9.6 | 0.00 | 0.00 | 0.00 | 52 | 1005.8 |
| 20260505013056 | 73 | 201 | 4.3 | 14.8 | 0.00 | 0.00 | 0.00 | 51 | 1005.6 |
| 20260505011557 | 73 | 213 | 7.0 | 14.8 | 0.00 | 0.00 | 0.00 | 51 | 1005.5 |
| 20260505010054 | 74 | 178 | 7.0 | 14.8 | 0.00 | 0.00 | 0.00 | 49 | 1005.4 |
| 20260505004552 | 74 | 151 | 7.0 | 16.5 | 0.00 | 0.00 | 0.00 | 49 | 1005.2 |
| 20260505003055 | 75 | 217 | 7.8 | 16.5 | 0.00 | 0.00 | 0.00 | 48 | 1005.1 |
| 20260505001554 | 76 | 188 | 6.1 | 16.5 | 0.00 | 0.00 | 0.00 | 47 | 1005.0 |
| 20260504234624 | 77 | 200 | 7.8 | 22.6 | 0.00 | 0.00 | 0.00 | 45 | 1005.1 |
| 20260504233058 | 77 | 139 | 7.8 | 15.6 | 0.00 | 0.00 | 0.00 | 44 | 1005.2 |
| 20260504231602 | 78 | 194 | 7.8 | 20.9 | 0.00 | 0.00 | 0.00 | 43 | 1005.4 |
| 20260504230049 | 78 | 213 | 10.4 | 20.9 | 0.00 | 0.00 | 0.00 | 42 | 1005.5 |
| 20260504224549 | 79 | 152 | 7.8 | 20.9 | 0.00 | 0.00 | 0.00 | 42 | 1005.4 |
| 20260504223053 | 79 | 161 | 7.0 | 20.0 | 0.00 | 0.00 | 0.00 | 41 | 1005.6 |
| 20260504221558 | 80 | 194 | 8.7 | 18.2 | 0.00 | 0.00 | 0.00 | 38 | 1005.5 |
| 20260504220056 | 80 | 186 | 8.7 | 15.6 | 0.00 | 0.00 | 0.00 | 37 | 1005.5 |
| 20260504214551 | 79 | 171 | 6.1 | 16.5 | 0.00 | 0.00 | 0.00 | 37 | 1005.7 |
| 20260504213054 | 79 | 150 | 9.6 | 20.0 | 0.00 | 0.00 | 0.00 | 36 | 1005.5 |
| 20260504211553 | 79 | 196 | 7.0 | 20.9 | 0.00 | 0.00 | 0.00 | 37 | 1005.8 |
| 20260504210109 | 79 | 184 | 6.1 | 18.2 | 0.00 | 0.00 | 0.00 | 38 | 1006.1 |
| 20260504204601 | 79 | 198 | 7.0 | 14.8 | 0.00 | 0.00 | 0.00 | 37 | 1006.7 |
| 20260504203053 | 79 | 155 | 5.2 | 17.4 | 0.00 | 0.00 | 0.00 | 37 | 1007.2 |
| 20260504201554 | 79 | 174 | 7.0 | 21.7 | 0.00 | 0.00 | 0.00 | 35 | 1007.2 |
| 20260504200051 | 81 | 114 | 7.8 | 23.5 | 0.00 | 0.00 | 0.00 | 36 | 1006.9 |
| 20260504194609 | 81 | 204 | 7.8 | 20.0 | 0.00 | 0.00 | 0.00 | 36 | 1006.7 |
| 20260504193058 | 81 | 203 | 8.7 | 25.2 | 0.00 | 0.00 | 0.00 | 35 | 1006.6 |
| 20260504191558 | 81 | 217 | 11.3 | 28.7 | 0.00 | 0.00 | 0.00 | 37 | 1006.9 |
| 20260504190125 | 80 | 178 | 13.9 | 26.9 | 0.00 | 0.00 | 0.00 | 36 | 1006.8 |
| 20260504184558 | 80 | 150 | 12.2 | 25.2 | 0.00 | 0.00 | 0.00 | 35 | 1006.5 |
| 20260504183054 | 80 | 121 | 9.6 | 33.9 | 0.00 | 0.00 | 0.00 | 38 | 1006.3 |
| 20260504181603 | 80 | 221 | 11.3 | 29.5 | 0.00 | 0.00 | 0.00 | 38 | 1006.7 |
| 20260504180201 | 80 | 188 | 8.7 | 25.2 | 0.00 | 0.00 | 0.00 | 38 | 1007.0 |
| 20260504174558 | 79 | 192 | 8.7 | 18.2 | 0.00 | 0.00 | 0.00 | 40 | 1007.3 |
| 20260504173108 | 79 | 189 | 7.8 | 21.7 | 0.00 | 0.00 | 0.00 | 42 | 1007.8 |
| 20260504171559 | 78 | 164 | 9.6 | 17.4 | 0.00 | 0.00 | 0.00 | 43 | 1008.1 |
| 20260504140115 | 65 | 186 | 4.3 | 9.6 | 0.00 | 0.00 | 0.00 | 68 | 1009.9 |
| 20260504120111 | 60 | 165 | 2.6 | 6.1 | 0.00 | 0.00 | 0.00 | 75 | 1010.3 |